Time;durP1;ratioP1;P1;durP2;ratioP2;P2;SDS_P1;SDS_P2;PMS_P1;PMS_P2;Temp;Humidity;BMP_temperature;BMP_pressure;BME280_temperature;BME280_humidity;BME280_pressure;Samples;Min_cycle;Max_cycle;Signal;HPM_P1;HPM_P2
2023/03/01 00:01:11;;;;;;;1.27;1.27;;;;;;;-1.75;81.69;103065.75;5021161;28;20033;-63
2023/03/01 00:03:36;;;;;;;1.30;1.30;;;;;;;-1.13;76.44;103058.19;5020925;28;20437;-63
2023/03/01 00:06:03;;;;;;;1.30;1.30;;;;;;;-0.65;73.22;103054.06;5020988;28;20052;-62
2023/03/01 00:08:29;;;;;;;1.40;1.30;;;;;;;-0.77;74.07;103052.19;5020654;28;20053;-63
2023/03/01 00:11:22;;;;;;;1.30;1.30;;;;;;;-1.04;76.25;103065.66;5020142;28;20368;-62
2023/03/01 00:13:50;;;;;;;1.30;1.30;;;;;;;-1.15;76.85;103058.28;5019849;28;20029;-63
2023/03/01 00:16:22;;;;;;;1.20;1.20;;;;;;;-1.21;76.93;103063.22;5019922;28;20028;-62
2023/03/01 00:18:47;;;;;;;1.40;1.30;;;;;;;-1.10;75.33;103050.75;5019722;28;20025;-62
2023/03/01 00:21:13;;;;;;;1.27;1.27;;;;;;;-0.98;74.86;103061.72;5019520;28;20021;-62
2023/03/01 00:23:39;;;;;;;1.52;1.42;;;;;;;-0.99;75.12;103054.59;5020970;28;20025;-62
2023/03/01 00:26:09;;;;;;;1.30;1.30;;;;;;;-1.22;77.04;103061.47;5019672;28;20061;-62
2023/03/01 00:28:35;;;;;;;1.20;1.20;;;;;;;-1.33;78.23;103068.41;5021754;28;21022;-63
2023/03/01 00:31:09;;;;;;;1.40;1.40;;;;;;;-1.45;79.08;103069.22;5021928;28;20116;-63
2023/03/01 00:33:35;;;;;;;1.30;1.30;;;;;;;-1.54;79.00;103071.63;5019891;28;20419;-63
2023/03/01 00:36:01;;;;;;;1.40;1.40;;;;;;;-1.46;78.07;103072.88;5020339;28;20034;-62
2023/03/01 00:38:26;;;;;;;1.45;1.45;;;;;;;-1.49;78.04;103064.13;5018982;28;20125;-62
2023/03/01 00:40:51;;;;;;;1.30;1.30;;;;;;;-1.43;77.51;103061.88;5020698;28;20654;-63
2023/03/01 00:43:17;;;;;;;1.30;1.30;;;;;;;-1.43;77.72;103063.72;5020871;28;20604;-63
2023/03/01 00:45:43;;;;;;;1.38;1.38;;;;;;;-1.52;78.97;103067.88;5019698;28;20045;-62
2023/03/01 00:48:08;;;;;;;1.27;1.27;;;;;;;-1.60;79.52;103062.97;5021223;28;20087;-63
2023/03/01 00:50:33;;;;;;;1.30;1.30;;;;;;;-1.54;78.31;103060.84;5024299;28;20057;-63
2023/03/01 00:52:58;;;;;;;1.30;1.30;;;;;;;-1.45;78.33;103055.75;5026517;28;20029;-63
2023/03/01 00:55:24;;;;;;;1.20;1.20;;;;;;;-1.38;77.66;103048.13;5019982;28;20029;-62
2023/03/01 00:57:50;;;;;;;1.30;1.30;;;;;;;-1.62;79.44;103048.75;5020079;28;20034;-62
2023/03/01 01:00:16;;;;;;;1.50;1.40;;;;;;;-1.67;80.04;103042.78;5019942;28;20387;-62
2023/03/01 01:02:41;;;;;;;1.30;1.30;;;;;;;-1.74;81.08;103041.41;5020338;28;20448;-62
2023/03/01 01:05:07;;;;;;;1.17;1.17;;;;;;;-1.81;81.91;103040.09;5020542;28;20022;-62
2023/03/01 01:07:32;;;;;;;1.20;1.20;;;;;;;-1.71;80.37;103045.75;5019166;28;20683;-63
2023/03/01 01:09:58;;;;;;;1.30;1.30;;;;;;;-1.83;81.23;103039.28;5022244;28;20025;-62
2023/03/01 01:12:23;;;;;;;1.35;1.35;;;;;;;-1.90;81.83;103032.56;5018215;28;20078;-62
2023/03/01 01:14:48;;;;;;;1.33;1.33;;;;;;;-1.95;82.41;103037.38;5019839;28;20116;-62
2023/03/01 01:17:14;;;;;;;1.67;1.40;;;;;;;-1.98;82.92;103040.25;5021279;28;20805;-62
2023/03/01 01:19:39;;;;;;;1.40;1.40;;;;;;;-2.04;83.21;103036.13;5020191;28;20044;-62
2023/03/01 01:22:04;;;;;;;1.33;1.33;;;;;;;-2.02;82.06;103030.66;5023493;28;20037;-62
2023/03/01 01:24:30;;;;;;;1.30;1.30;;;;;;;-1.31;77.03;103014.44;5040875;28;20057;-62
2023/03/01 01:26:55;;;;;;;1.30;1.30;;;;;;;-1.19;77.10;103010.06;5034134;28;20032;-62
2023/03/01 01:29:20;;;;;;;1.33;1.33;;;;;;;-1.65;79.92;103011.22;5024894;28;20030;-62
2023/03/01 01:31:46;;;;;;;1.30;1.30;;;;;;;-1.76;80.72;103013.72;5024477;28;20091;-62
2023/03/01 01:34:18;;;;;;;1.30;1.30;;;;;;;-1.86;81.12;103013.44;5023392;28;20033;-62
2023/03/01 01:36:43;;;;;;;1.30;1.30;;;;;;;-1.92;81.82;103007.56;5022714;28;20029;-62
2023/03/01 01:39:12;;;;;;;1.30;1.30;;;;;;;-1.99;82.11;103007.06;5021845;28;20029;-62
2023/03/01 01:41:40;;;;;;;1.35;1.35;;;;;;;-2.05;82.26;103001.22;5024267;28;20133;-62
2023/03/01 01:44:19;;;;;;;1.33;1.33;;;;;;;-2.10;83.12;102994.28;5023375;28;20037;-62
2023/03/01 01:46:49;;;;;;;1.30;1.30;;;;;;;-2.11;83.45;102999.78;5024068;28;20026;-62
2023/03/01 01:49:28;;;;;;;1.40;1.40;;;;;;;-2.16;83.58;102993.81;5022933;28;20021;-62
2023/03/01 01:52:03;;;;;;;1.40;1.40;;;;;;;-2.22;84.05;102992.38;5022654;28;20026;-62
2023/03/01 01:54:57;;;;;;;1.30;1.30;;;;;;;-2.29;84.35;102995.50;5021404;28;20099;-62
2023/03/01 01:57:29;;;;;;;1.48;1.40;;;;;;;-2.36;84.57;102992.34;5010811;28;20049;-62
2023/03/01 01:59:59;;;;;;;1.30;1.30;;;;;;;-2.37;85.07;102985.25;5023093;28;20061;-62
2023/03/01 02:02:25;;;;;;;1.30;1.30;;;;;;;-2.39;85.73;102987.13;5023948;28;20034;-63
2023/03/01 02:04:55;;;;;;;1.30;1.30;;;;;;;-2.39;85.54;102981.75;5024053;28;20532;-62
2023/03/01 02:07:23;;;;;;;1.30;1.30;;;;;;;-2.39;85.11;102976.38;5022524;28;20574;-62
2023/03/01 02:09:52;;;;;;;1.40;1.40;;;;;;;-2.41;85.11;102973.78;5021843;28;20044;-62
2023/03/01 02:12:20;;;;;;;1.35;1.35;;;;;;;-2.42;85.68;102976.59;5022459;28;20104;-62
2023/03/01 02:14:45;;;;;;;;;;;;;;;-2.40;84.64;102977.34;5022657;28;20017;-62
2023/03/01 02:17:14;;;;;;;1.30;1.30;;;;;;;-2.44;85.42;102973.09;5023517;28;19995;-62
2023/03/01 02:19:44;;;;;;;1.40;1.40;;;;;;;-2.17;84.58;102966.03;5020850;28;20037;-63
2023/03/01 02:22:22;;;;;;;1.38;1.38;;;;;;;-2.41;85.14;102962.16;5022679;28;20053;-62
2023/03/01 02:25:01;;;;;;;1.30;1.30;;;;;;;-2.40;85.14;102963.88;5021818;28;20087;-62
2023/03/01 02:27:37;;;;;;;1.20;1.20;;;;;;;-2.34;84.72;102974.25;5022019;28;20509;-63
2023/03/01 02:30:02;;;;;;;1.30;1.30;;;;;;;-2.20;83.49;102971.59;5023985;28;20060;-62
2023/03/01 02:32:28;;;;;;;1.25;1.25;;;;;;;-1.86;81.12;102969.47;5022462;28;20057;-62
2023/03/01 02:34:55;;;;;;;1.30;1.30;;;;;;;-1.88;80.76;102974.94;5022559;28;20037;-63
2023/03/01 02:37:24;;;;;;;1.30;1.30;;;;;;;-2.01;82.08;102968.63;5021435;28;20026;-62
2023/03/01 02:39:57;;;;;;;1.35;1.35;;;;;;;-2.12;83.24;102965.75;5020806;28;20288;-62
2023/03/01 02:42:29;;;;;;;1.30;1.30;;;;;;;-2.20;83.53;102965.34;5020368;28;20080;-62
2023/03/01 02:44:54;;;;;;;1.30;1.30;;;;;;;-2.24;83.96;102964.66;5020377;28;20076;-62
2023/03/01 02:47:19;;;;;;;1.27;1.27;;;;;;;-2.20;83.23;102966.22;5022173;28;20133;-62
2023/03/01 02:49:45;;;;;;;1.30;1.30;;;;;;;-2.24;83.51;102963.81;5022598;28;20464;-62
2023/03/01 02:52:38;;;;;;;1.38;1.38;;;;;;;-2.27;84.56;102969.41;5029691;28;20033;-62
2023/03/01 02:55:14;;;;;;;1.30;1.30;;;;;;;-2.33;84.64;102970.66;5022913;28;20461;-62
2023/03/01 02:57:44;;;;;;;1.40;1.30;;;;;;;-2.36;85.05;102969.00;5020248;28;20025;-62
2023/03/01 03:00:18;;;;;;;1.40;1.30;;;;;;;-2.36;84.89;102963.59;5021888;28;20033;-62
2023/03/01 03:02:44;;;;;;;1.30;1.30;;;;;;;-2.39;85.06;102966.47;5023827;28;20510;-62
2023/03/01 03:05:22;;;;;;;1.40;1.40;;;;;;;-2.42;85.74;102964.00;5021541;28;20033;-62
2023/03/01 03:07:49;;;;;;;1.30;1.30;;;;;;;-2.48;85.95;102966.19;5021068;28;20045;-62
2023/03/01 03:10:27;;;;;;;1.30;1.30;;;;;;;-2.54;86.16;102967.41;5021142;28;20037;-63
2023/03/01 03:12:58;;;;;;;1.30;1.30;;;;;;;-2.54;86.25;102972.78;5020973;28;20034;-63
2023/03/01 03:15:25;;;;;;;1.30;1.30;;;;;;;-2.56;85.83;102974.72;5022848;28;20061;-63
2023/03/01 03:17:51;;;;;;;1.30;1.30;;;;;;;-2.43;84.80;102964.97;5021326;28;20029;-63
2023/03/01 03:20:20;;;;;;;1.40;1.40;;;;;;;-2.40;84.58;102964.75;5025529;28;20032;-63
2023/03/01 03:22:49;;;;;;;;;;;;;;;-2.50;84.24;102978.88;5020215;28;20076;-63
2023/03/01 03:25:16;;;;;;;1.40;1.40;;;;;;;-2.33;83.51;102967.06;5022069;28;19920;-62
2023/03/01 03:27:44;;;;;;;1.40;1.40;;;;;;;-2.54;85.14;102963.88;5022655;28;20021;-62
2023/03/01 03:30:13;;;;;;;1.40;1.33;;;;;;;-2.57;85.44;102964.06;5021137;28;20317;-62
2023/03/01 03:32:40;;;;;;;1.42;1.42;;;;;;;-2.54;84.79;102959.34;5020605;28;20030;-62
2023/03/01 03:35:10;;;;;;;1.40;1.40;;;;;;;-2.62;85.85;102961.66;5020847;28;20026;-62
2023/03/01 03:40:40;;;;;;;1.40;1.40;;;;;;;-2.73;86.62;102956.06;5010393;28;20088;-62
2023/03/01 03:43:08;;;;;;;1.40;1.40;;;;;;;-2.74;87.12;102960.53;5019656;28;20040;-62
2023/03/01 03:45:35;;;;;;;1.30;1.30;;;;;;;-2.69;86.41;102966.50;5020602;28;20037;-62
2023/03/01 03:48:01;;;;;;;1.42;1.38;;;;;;;-2.74;86.86;102962.38;5018032;28;20065;-62
2023/03/01 03:50:27;;;;;;;1.35;1.35;;;;;;;-2.73;87.19;102961.44;5021447;28;20479;-62
2023/03/01 03:52:52;;;;;;;1.40;1.40;;;;;;;-2.73;87.36;102962.31;5020457;28;20030;-62
2023/03/01 03:55:19;;;;;;;1.30;1.30;;;;;;;-2.74;87.35;102954.31;5019869;28;20035;-62
2023/03/01 03:57:51;;;;;;;1.58;1.50;;;;;;;-2.44;84.93;102949.75;5022230;28;20060;-62
2023/03/01 04:00:18;;;;;;;1.35;1.35;;;;;;;-2.39;83.53;102954.84;5018883;28;20029;-62
2023/03/01 04:02:45;;;;;;;1.50;1.50;;;;;;;-2.46;84.07;102950.81;5020892;28;20472;-62
2023/03/01 04:05:14;;;;;;;1.40;1.40;;;;;;;-2.55;85.38;102941.47;5021639;28;20635;-62
2023/03/01 04:07:40;;;;;;;1.30;1.30;;;;;;;-2.51;84.41;102944.84;5021130;28;20018;-62
2023/03/01 04:10:09;;;;;;;1.30;1.30;;;;;;;-2.55;85.07;102937.94;5020534;28;20029;-62
2023/03/01 04:12:34;;;;;;;1.40;1.40;;;;;;;-2.27;82.91;102931.72;5020775;28;20136;-62
2023/03/01 04:15:00;;;;;;;1.50;1.50;;;;;;;-2.38;83.22;102933.25;5020832;28;20156;-62
2023/03/01 04:17:26;;;;;;;1.40;1.40;;;;;;;-2.66;85.00;102936.75;5020967;28;20026;-62
2023/03/01 04:19:51;;;;;;;1.40;1.40;;;;;;;-2.68;85.63;102938.69;5020886;28;20551;-62
2023/03/01 04:22:18;;;;;;;1.40;1.40;;;;;;;-2.64;85.28;102929.44;5020623;28;20544;-62
2023/03/01 04:24:44;;;;;;;1.40;1.40;;;;;;;-2.80;86.43;102928.66;5020518;28;20055;-61
2023/03/01 04:27:09;;;;;;;1.30;1.30;;;;;;;-2.88;87.33;102923.75;5018092;28;20086;-61
2023/03/01 04:29:34;;;;;;;1.30;1.30;;;;;;;-2.77;86.22;102931.16;5022783;28;20360;-62
2023/03/01 04:32:00;;;;;;;1.40;1.40;;;;;;;-2.92;86.92;102932.09;5019372;28;20021;-62
2023/03/01 04:34:26;;;;;;;1.45;1.45;;;;;;;-2.95;87.71;102930.44;5020905;28;20030;-62
2023/03/01 04:36:52;;;;;;;1.40;1.40;;;;;;;-3.01;88.26;102928.13;5019945;28;20057;-62
2023/03/01 04:39:17;;;;;;;1.40;1.40;;;;;;;-2.95;87.34;102924.19;5020181;28;20072;-62
2023/03/01 04:41:43;;;;;;;1.40;1.40;;;;;;;-2.97;87.68;102916.22;5018012;28;20073;-62
2023/03/01 04:44:09;;;;;;;1.50;1.40;;;;;;;-3.03;88.10;102916.59;5020035;28;20116;-62
2023/03/01 04:46:34;;;;;;;1.40;1.40;;;;;;;-3.08;88.65;102916.00;5020707;28;20466;-62
2023/03/01 04:49:00;;;;;;;1.30;1.30;;;;;;;-3.13;89.19;102918.97;5021142;28;20034;-62
2023/03/01 04:51:25;;;;;;;1.40;1.40;;;;;;;-3.18;89.16;102913.00;5021680;28;20048;-62
2023/03/01 04:53:51;;;;;;;1.25;1.25;;;;;;;-3.20;89.39;102916.72;5031352;28;20395;-62
2023/03/01 04:56:20;;;;;;;1.50;1.50;;;;;;;-3.24;89.80;102913.38;5022574;28;20044;-62
2023/03/01 04:58:45;;;;;;;1.40;1.40;;;;;;;-3.26;90.07;102915.25;5024559;28;20476;-62
2023/03/01 05:01:16;;;;;;;1.38;1.38;;;;;;;-3.14;89.28;102911.88;5024036;28;20060;-62
2023/03/01 05:03:47;;;;;;;1.30;1.30;;;;;;;-2.65;86.06;102900.81;5024901;28;20079;-62
2023/03/01 05:06:12;;;;;;;1.50;1.50;;;;;;;-2.88;87.24;102906.75;5024580;28;20032;-62
2023/03/01 05:08:39;;;;;;;1.40;1.40;;;;;;;-2.55;85.08;102901.13;5023248;28;20029;-62
2023/03/01 05:11:05;;;;;;;1.30;1.30;;;;;;;-2.64;85.62;102904.38;5022326;28;20120;-62
2023/03/01 05:13:31;;;;;;;1.30;1.30;;;;;;;-2.18;82.93;102901.50;5023364;28;20429;-62
2023/03/01 05:15:59;;;;;;;1.33;1.33;;;;;;;-2.22;82.81;102898.16;5023002;28;20041;-62
2023/03/01 05:18:25;;;;;;;1.30;1.30;;;;;;;-2.21;82.25;102896.34;5022895;28;20029;-62
2023/03/01 05:20:52;;;;;;;1.40;1.40;;;;;;;-2.11;81.68;102886.72;5024786;28;20795;-62
2023/03/01 05:23:18;;;;;;;1.30;1.30;;;;;;;-2.12;81.36;102879.59;5039352;28;20060;-62
2023/03/01 05:25:44;;;;;;;1.30;1.30;;;;;;;-2.24;82.21;102880.38;5038654;28;20033;-62
2023/03/01 05:28:13;;;;;;;1.33;1.33;;;;;;;-2.09;81.07;102880.25;5025688;28;20025;-62
2023/03/01 05:30:39;;;;;;;1.45;1.40;;;;;;;-2.29;82.56;102869.88;5022636;28;20079;-62
2023/03/01 05:33:04;;;;;;;1.40;1.40;;;;;;;-2.48;83.50;102870.22;5023761;28;20056;-62
2023/03/01 05:35:32;;;;;;;1.50;1.40;;;;;;;-2.49;83.62;102868.44;5022358;28;20037;-62
2023/03/01 05:37:58;;;;;;;1.42;1.42;;;;;;;-2.46;83.73;102862.91;5025038;28;20101;-62
2023/03/01 05:40:23;;;;;;;1.40;1.40;;;;;;;-2.66;84.64;102861.44;5039761;28;20116;-62
2023/03/01 05:42:54;;;;;;;1.60;1.60;;;;;;;-2.58;84.90;102861.00;5022447;28;20729;-62
2023/03/01 05:45:21;;;;;;;1.50;1.40;;;;;;;-2.60;84.13;102862.88;5023189;28;20049;-62
2023/03/01 05:47:48;;;;;;;1.50;1.50;;;;;;;-2.63;84.33;102853.19;5022116;28;20083;-62
2023/03/01 05:50:19;;;;;;;1.48;1.48;;;;;;;-2.84;86.06;102859.03;5021332;28;20033;-62
2023/03/01 05:52:48;;;;;;;1.60;1.50;;;;;;;-2.66;84.74;102856.06;5020416;28;20111;-62
2023/03/01 05:55:14;;;;;;;1.40;1.40;;;;;;;-2.74;84.85;102858.34;5019362;28;20025;-62
2023/03/01 05:57:39;;;;;;;1.50;1.40;;;;;;;-2.40;82.83;102848.19;5022303;28;20043;-62
2023/03/01 06:00:06;;;;;;;1.40;1.40;;;;;;;-2.53;84.00;102858.88;5020166;28;20029;-62
2023/03/01 06:02:31;;;;;;;1.40;1.40;;;;;;;-2.50;83.51;102860.50;5021184;28;20041;-62
2023/03/01 06:04:56;;;;;;;1.38;1.38;;;;;;;-2.54;84.28;102867.00;5021413;28;20167;-62
2023/03/01 06:07:22;;;;;;;1.40;1.40;;;;;;;-2.45;83.39;102863.75;5022580;28;20025;-62
2023/03/01 06:09:47;;;;;;;1.40;1.40;;;;;;;-2.52;83.79;102865.13;5020348;28;20364;-61
2023/03/01 06:12:12;;;;;;;1.40;1.40;;;;;;;-2.27;82.53;102865.28;5021980;28;20427;-62
2023/03/01 06:14:37;;;;;;;1.35;1.35;;;;;;;-2.45;82.95;102856.53;5020965;28;20057;-62
2023/03/01 06:17:03;;;;;;;1.40;1.40;;;;;;;-2.31;82.75;102849.44;5023860;28;20044;-61
2023/03/01 06:19:28;;;;;;;1.40;1.40;;;;;;;-2.55;84.10;102857.22;5019581;28;20033;-62
2023/03/01 06:21:53;;;;;;;1.50;1.50;;;;;;;-2.59;85.20;102861.06;5023890;28;20053;-62
2023/03/01 06:24:19;;;;;;;1.50;1.50;;;;;;;-2.65;85.67;102857.78;5023588;28;20120;-62
2023/03/01 06:26:44;;;;;;;1.60;1.50;;;;;;;-2.65;85.73;102857.78;5020667;28;20026;-61
2023/03/01 06:29:09;;;;;;;1.30;1.30;;;;;;;-2.50;84.69;102866.72;5023212;28;20511;-62
2023/03/01 06:31:34;;;;;;;1.40;1.40;;;;;;;-2.51;84.46;102859.63;5020309;28;20095;-62
2023/03/01 06:34:00;;;;;;;1.40;1.40;;;;;;;-2.06;82.66;102854.97;5021005;28;20013;-62
2023/03/01 06:36:25;;;;;;;1.40;1.40;;;;;;;-2.27;83.11;102845.59;5021657;28;20675;-61
2023/03/01 06:38:50;;;;;;;1.40;1.40;;;;;;;-2.06;82.63;102857.66;5018864;28;20040;-62
2023/03/01 06:41:16;;;;;;;1.40;1.40;;;;;;;-2.05;83.20;102853.13;5022217;28;20426;-62
2023/03/01 06:43:41;;;;;;;1.30;1.30;;;;;;;-1.81;81.58;102854.25;5019385;28;20044;-61
2023/03/01 06:46:06;;;;;;;1.40;1.40;;;;;;;-1.99;81.89;102860.81;5020245;28;20542;-62
2023/03/01 06:48:33;;;;;;;1.40;1.40;;;;;;;-1.93;81.74;102858.56;5019852;28;20029;-62
2023/03/01 06:51:00;;;;;;;1.60;1.50;;;;;;;-2.19;82.91;102860.25;5025503;28;20033;-62
2023/03/01 06:53:26;;;;;;;1.38;1.38;;;;;;;-1.90;81.98;102860.22;5022594;28;20044;-62
2023/03/01 06:55:59;;;;;;;1.45;1.45;;;;;;;-1.79;81.92;102863.06;5020614;28;20471;-62
2023/03/01 06:58:25;;;;;;;1.50;1.50;;;;;;;-1.71;80.91;102860.75;5023401;28;20053;-62
2023/03/01 07:00:50;;;;;;;1.30;1.30;;;;;;;-1.71;80.94;102862.59;5023182;28;20829;-62
2023/03/01 07:03:16;;;;;;;1.30;1.30;;;;;;;-1.71;80.86;102852.66;5023520;28;20025;-61
2023/03/01 07:05:41;;;;;;;1.40;1.40;;;;;;;-1.75;81.43;102853.84;5024514;28;20021;-62
2023/03/01 07:08:06;;;;;;;1.45;1.40;;;;;;;-1.66;81.08;102864.00;5027023;28;20029;-62
2023/03/01 07:10:32;;;;;;;1.40;1.40;;;;;;;-1.54;81.32;102856.06;5024062;28;20082;-63
2023/03/01 07:12:58;;;;;;;1.50;1.40;;;;;;;-1.79;82.63;102857.69;5026769;28;20125;-62
2023/03/01 07:15:24;;;;;;;1.70;1.60;;;;;;;-1.95;84.06;102852.44;5027884;28;20041;-62
2023/03/01 07:17:50;;;;;;;1.40;1.40;;;;;;;-2.00;85.10;102859.09;5027079;28;20483;-62
2023/03/01 07:20:16;;;;;;;1.38;1.38;;;;;;;-1.56;83.06;102848.09;5026651;28;20029;-62
2023/03/01 07:22:42;;;;;;;1.30;1.30;;;;;;;-1.49;82.42;102853.94;5024667;28;20021;-63
2023/03/01 07:25:08;;;;;;;1.42;1.40;;;;;;;-1.42;82.37;102857.91;5027588;28;20112;-62
2023/03/01 07:27:33;;;;;;;1.40;1.40;;;;;;;-1.15;80.60;102857.91;5025259;28;20247;-62
2023/03/01 07:29:59;;;;;;;1.40;1.40;;;;;;;-1.10;81.41;102855.75;5038070;28;20293;-62
2023/03/01 07:32:24;;;;;;;1.30;1.30;;;;;;;-0.75;78.53;102856.00;5026337;28;20033;-62
2023/03/01 07:34:51;;;;;;;1.40;1.40;;;;;;;-0.68;78.48;102861.81;5026064;28;20082;-63
2023/03/01 07:37:16;;;;;;;1.35;1.35;;;;;;;-0.75;78.53;102860.53;5025884;28;20100;-62
2023/03/01 07:39:42;;;;;;;1.30;1.30;;;;;;;-0.67;77.54;102866.25;5025043;28;20168;-63
2023/03/01 07:42:07;;;;;;;2.67;1.50;;;;;;;-0.89;78.97;102869.59;5024066;28;20213;-62
2023/03/01 07:44:34;;;;;;;1.40;1.40;;;;;;;-0.83;79.10;102869.16;5018849;28;20044;-62
2023/03/01 07:46:59;;;;;;;1.30;1.30;;;;;;;-0.73;78.45;102874.78;5036445;28;20029;-62
2023/03/01 07:49:26;;;;;;;1.30;1.30;;;;;;;-0.69;77.82;102865.50;5028856;28;20078;-62
2023/03/01 07:51:51;;;;;;;1.30;1.30;;;;;;;-0.68;78.37;102862.69;5026913;28;20124;-62
2023/03/01 07:54:17;;;;;;;1.40;1.40;;;;;;;-0.58;77.00;102866.47;5028222;28;20108;-62
2023/03/01 07:56:43;;;;;;;1.40;1.40;;;;;;;-0.71;78.62;102873.72;5022088;28;20080;-62
2023/03/01 07:59:08;;;;;;;1.45;1.40;;;;;;;-0.51;78.16;102864.19;5021516;28;20033;-62
2023/03/01 08:01:33;;;;;;;1.30;1.30;;;;;;;-0.18;77.96;102862.75;5028070;28;20033;-62
2023/03/01 08:03:59;;;;;;;1.23;1.23;;;;;;;0.10;75.85;102861.59;5024650;28;20033;-62
2023/03/01 08:06:24;;;;;;;1.50;1.40;;;;;;;0.12;75.49;102863.22;5025569;28;20037;-62
2023/03/01 08:08:49;;;;;;;1.30;1.30;;;;;;;0.45;74.25;102869.78;5024197;28;20064;-62
2023/03/01 08:11:15;;;;;;;1.30;1.30;;;;;;;0.33;74.35;102876.13;5025742;28;20032;-62
2023/03/01 08:13:41;;;;;;;1.30;1.30;;;;;;;0.45;73.67;102865.22;5025095;28;20476;-62
2023/03/01 08:16:10;;;;;;;1.20;1.20;;;;;;;0.66;72.14;102878.09;5025392;28;20025;-62
2023/03/01 08:18:35;;;;;;;1.30;1.30;;;;;;;0.56;73.37;102871.66;5025311;28;20120;-61
2023/03/01 08:21:03;;;;;;;1.20;1.20;;;;;;;0.82;73.71;102877.84;5025267;28;20097;-62
2023/03/01 08:23:29;;;;;;;1.30;1.30;;;;;;;0.85;72.17;102878.44;5024457;28;20029;-62
2023/03/01 08:26:02;;;;;;;1.20;1.20;;;;;;;1.15;71.30;102864.38;5025464;28;20022;-62
2023/03/01 08:28:27;;;;;;;1.20;1.20;;;;;;;1.61;70.64;102857.19;5024624;28;20104;-62
2023/03/01 08:30:52;;;;;;;1.23;1.23;;;;;;;2.04;67.18;102847.31;5025351;28;20113;-63
2023/03/01 08:33:17;;;;;;;1.10;1.10;;;;;;;2.34;66.77;102843.91;5025121;28;20033;-62
2023/03/01 08:35:43;;;;;;;1.25;1.25;;;;;;;2.61;66.15;102845.31;5022302;28;20029;-63
2023/03/01 08:38:08;;;;;;;1.20;1.20;;;;;;;3.00;64.89;102851.91;5024464;28;20053;-61
2023/03/01 08:40:33;;;;;;;1.20;1.20;;;;;;;3.13;64.04;102843.53;5024851;28;20468;-62
2023/03/01 08:42:59;;;;;;;1.00;1.00;;;;;;;3.00;63.02;102840.19;5024878;28;20033;-61
2023/03/01 08:45:24;;;;;;;1.20;1.20;;;;;;;3.09;63.67;102842.09;5024732;28;20121;-62
2023/03/01 08:47:52;;;;;;;0.90;0.90;;;;;;;3.38;63.81;102844.97;5024851;28;20021;-63
2023/03/01 08:50:18;;;;;;;1.00;1.00;;;;;;;3.61;62.71;102829.38;5025738;28;20021;-63
2023/03/01 08:52:43;;;;;;;1.10;1.10;;;;;;;3.72;61.19;102825.72;5023951;28;20480;-63
2023/03/01 08:55:09;;;;;;;1.10;1.10;;;;;;;3.89;61.15;102819.59;5025335;28;20052;-62
2023/03/01 08:57:34;;;;;;;0.90;0.90;;;;;;;4.05;60.63;102822.66;5024628;28;20456;-63
2023/03/01 08:59:59;;;;;;;1.00;1.00;;;;;;;4.03;59.11;102829.22;5024937;28;20365;-62
2023/03/01 09:02:25;;;;;;;0.95;0.95;;;;;;;4.99;60.56;102822.13;5025273;28;20114;-63
2023/03/01 09:04:50;;;;;;;0.88;0.88;;;;;;;6.22;55.92;102814.63;5024503;28;20502;-63
2023/03/01 09:07:15;;;;;;;1.00;1.00;;;;;;;6.37;54.14;102817.69;5025677;28;20072;-61
2023/03/01 09:09:41;;;;;;;1.00;1.00;;;;;;;7.02;50.35;102826.47;5023023;28;20029;-61
2023/03/01 09:12:06;;;;;;;0.80;0.80;;;;;;;7.56;49.94;102808.06;5021801;28;20072;-61
2023/03/01 09:14:31;;;;;;;0.88;0.88;;;;;;;7.77;48.28;102810.38;5024962;28;20013;-61
2023/03/01 09:16:57;;;;;;;0.80;0.80;;;;;;;7.67;47.22;102798.69;5024885;28;20022;-61
2023/03/01 09:19:22;;;;;;;0.80;0.80;;;;;;;8.64;46.89;102792.66;5024883;28;20354;-61
2023/03/01 09:21:53;;;;;;;0.80;0.80;;;;;;;8.88;43.83;102805.50;5024913;28;20092;-61
2023/03/01 09:24:21;;;;;;;0.70;0.70;;;;;;;8.24;44.94;102802.50;5024278;28;20026;-61
2023/03/01 09:26:47;;;;;;;0.70;0.70;;;;;;;8.41;44.91;102797.06;5024603;28;20041;-61
2023/03/01 09:29:13;;;;;;;0.80;0.80;;;;;;;8.91;43.94;102798.81;5024567;28;20033;-61
2023/03/01 09:31:39;;;;;;;0.70;0.70;;;;;;;9.25;42.37;102790.38;5024660;28;20030;-61
2023/03/01 09:34:05;;;;;;;0.70;0.70;;;;;;;9.41;42.73;102786.75;5020734;28;20033;-61
2023/03/01 09:36:30;;;;;;;0.60;0.60;;;;;;;10.54;42.06;102779.88;5024539;28;20021;-61
2023/03/01 09:38:58;;;;;;;0.70;0.70;;;;;;;9.72;40.88;102770.34;5023809;28;20022;-61
2023/03/01 09:41:52;;;;;;;0.77;0.77;;;;;;;9.02;41.49;102774.69;5024090;28;20025;-60
2023/03/01 09:44:27;;;;;;;0.70;0.70;;;;;;;8.78;42.38;102783.75;5024838;28;20404;-61
2023/03/01 09:46:53;;;;;;;0.70;0.70;;;;;;;9.15;41.84;102776.00;5027244;28;20025;-61
2023/03/01 09:49:23;;;;;;;1.05;0.70;;;;;;;9.96;39.15;102775.72;5028271;28;20469;-61
2023/03/01 09:52:31;;;;;;;0.60;0.60;;;;;;;10.09;39.02;102775.16;5027683;28;20389;-61
2023/03/01 09:54:56;;;;;;;0.70;0.70;;;;;;;10.27;38.58;102763.91;4998689;28;20039;-61
2023/03/01 09:57:32;;;;;;;0.60;0.60;;;;;;;10.52;38.79;102764.59;5026252;28;20030;-61
2023/03/01 10:00:13;;;;;;;0.60;0.60;;;;;;;11.21;38.14;102767.25;5022939;28;20060;-60
2023/03/01 10:02:56;;;;;;;0.57;0.57;;;;;;;12.24;37.29;102758.91;5023061;28;20472;-61
2023/03/01 10:05:43;;;;;;;0.60;0.60;;;;;;;13.77;34.07;102758.22;5026597;28;20627;-61
2023/03/01 10:08:29;;;;;;;0.50;0.50;;;;;;;14.68;32.80;102758.72;5027647;28;20417;-61
2023/03/01 10:10:54;;;;;;;0.43;0.43;;;;;;;14.29;30.01;102748.41;5024185;28;20041;-61
2023/03/01 10:13:58;;;;;;;0.50;0.50;;;;;;;14.32;32.67;102739.69;5026124;28;20037;-61
2023/03/01 10:16:49;;;;;;;0.43;0.43;;;;;;;14.23;31.83;102733.50;5028485;28;20526;-61
2023/03/01 10:19:39;;;;;;;0.40;0.40;;;;;;;13.96;30.58;102732.59;5023938;28;20537;-61
2023/03/01 10:22:31;;;;;;;0.40;0.40;;;;;;;14.61;32.81;102730.22;5027724;28;20041;-61
2023/03/01 10:25:02;;;;;;;0.40;0.40;;;;;;;14.91;30.04;102725.09;5029204;28;20049;-61
2023/03/01 10:27:54;;;;;;;0.40;0.40;;;;;;;14.88;31.17;102731.06;5025880;28;20033;-61
2023/03/01 10:30:29;;;;;;;0.60;0.60;;;;;;;14.79;29.80;102722.13;5029222;28;20726;-62
2023/03/01 10:32:56;;;;;;;0.63;0.43;;;;;;;14.81;29.29;102716.38;5029584;28;20033;-61
2023/03/01 10:35:27;;;;;;;0.40;0.40;;;;;;;15.39;29.27;102710.97;5030001;28;20368;-61
2023/03/01 10:38:07;;;;;;;0.40;0.40;;;;;;;13.05;31.05;102711.69;5027556;28;20033;-61
2023/03/01 10:40:34;;;;;;;0.32;0.32;;;;;;;12.37;31.90;102725.97;5023862;28;20029;-61
2023/03/01 10:43:02;;;;;;;0.40;0.40;;;;;;;12.05;32.59;102719.06;5026083;28;20375;-61
2023/03/01 10:45:34;;;;;;;0.50;0.50;;;;;;;11.85;33.19;102718.81;5024209;28;20125;-61
2023/03/01 10:48:08;;;;;;;0.60;0.60;;;;;;;11.36;34.20;102716.69;5027608;28;20030;-61
2023/03/01 10:50:34;;;;;;;0.60;0.60;;;;;;;10.53;35.55;102725.09;5023345;28;20154;-61
2023/03/01 10:53:02;;;;;;;0.50;0.50;;;;;;;11.10;35.35;102713.53;5022263;28;20760;-61
2023/03/01 10:55:39;;;;;;;0.50;0.50;;;;;;;11.65;33.63;102702.03;5027609;28;20091;-61
2023/03/01 10:58:15;;;;;;;0.60;0.60;;;;;;;11.02;34.43;102705.41;5027507;28;20084;-61
2023/03/01 11:00:48;;;;;;;0.60;0.60;;;;;;;11.31;37.09;102707.31;5031318;28;20464;-62
2023/03/01 11:03:19;;;;;;;0.60;0.60;;;;;;;12.83;34.36;102709.00;5028455;28;20021;-61
2023/03/01 11:05:56;;;;;;;0.60;0.60;;;;;;;13.85;33.71;102699.19;5024362;28;20025;-61
2023/03/01 11:08:34;;;;;;;0.50;0.50;;;;;;;13.16;32.81;102702.84;5025821;28;20029;-62
2023/03/01 11:11:12;;;;;;;;;;;;;;;12.71;32.93;102694.03;5027913;28;20091;-61
2023/03/01 11:13:58;;;;;;;0.60;0.60;;;;;;;12.45;33.03;102700.19;5024437;28;20360;-61
2023/03/01 11:16:28;;;;;;;0.60;0.60;;;;;;;12.16;33.12;102702.00;5026318;28;20068;-61
2023/03/01 11:19:03;;;;;;;0.50;0.50;;;;;;;11.54;33.25;102701.69;5026547;28;20056;-61
2023/03/01 11:21:32;;;;;;;0.50;0.50;;;;;;;10.98;34.05;102704.91;5027384;28;20061;-61
2023/03/01 11:24:00;;;;;;;0.70;0.70;;;;;;;10.89;35.30;102708.78;5028018;28;20028;-61
2023/03/01 11:26:28;;;;;;;0.60;0.60;;;;;;;11.87;34.46;102702.97;5027539;28;20113;-61
2023/03/01 11:28:57;;;;;;;0.63;0.63;;;;;;;12.68;33.04;102694.47;5026494;28;20477;-61
2023/03/01 11:31:24;;;;;;;0.60;0.60;;;;;;;12.82;32.71;102692.63;5027488;28;20025;-61
2023/03/01 11:33:55;;;;;;;0.60;0.60;;;;;;;12.82;33.96;102693.50;5027164;28;20103;-61
2023/03/01 11:36:36;;;;;;;0.60;0.60;;;;;;;12.45;34.50;102689.16;5028128;28;20079;-61